sensor_id;sensor_type;location;lat;lon;timestamp;temperature;humidity
3308;DHT22;1666;48.898;9.182;2022-08-21T00:01:06;17.00;1.00
3308;DHT22;1666;48.898;9.182;2022-08-21T00:03:39;16.90;1.00
3308;DHT22;1666;48.898;9.182;2022-08-21T00:06:09;16.90;1.00
3308;DHT22;1666;48.898;9.182;2022-08-21T00:08:40;16.90;1.00
3308;DHT22;1666;48.898;9.182;2022-08-21T00:11:12;16.90;1.00
3308;DHT22;1666;48.898;9.182;2022-08-21T00:13:42;16.90;1.00
3308;DHT22;1666;48.898;9.182;2022-08-21T00:16:12;16.90;1.00
3308;DHT22;1666;48.898;9.182;2022-08-21T00:18:42;16.90;1.00
3308;DHT22;1666;48.898;9.182;2022-08-21T00:21:13;16.90;1.00
3308;DHT22;1666;48.898;9.182;2022-08-21T00:23:43;16.90;1.00
3308;DHT22;1666;48.898;9.182;2022-08-21T00:26:15;16.80;1.00
3308;DHT22;1666;48.898;9.182;2022-08-21T00:28:45;16.80;1.00
3308;DHT22;1666;48.898;9.182;2022-08-21T00:31:16;16.70;1.00
3308;DHT22;1666;48.898;9.182;2022-08-21T00:33:46;16.60;1.00
3308;DHT22;1666;48.898;9.182;2022-08-21T00:36:16;16.60;1.00
3308;DHT22;1666;48.898;9.182;2022-08-21T00:38:46;16.60;1.00
3308;DHT22;1666;48.898;9.182;2022-08-21T00:41:19;16.50;1.00
3308;DHT22;1666;48.898;9.182;2022-08-21T00:44:06;16.60;1.00
3308;DHT22;1666;48.898;9.182;2022-08-21T00:46:37;16.60;1.00
3308;DHT22;1666;48.898;9.182;2022-08-21T00:49:08;16.60;1.00
3308;DHT22;1666;48.898;9.182;2022-08-21T00:51:43;16.60;1.00
3308;DHT22;1666;48.898;9.182;2022-08-21T00:54:15;16.50;1.00
3308;DHT22;1666;48.898;9.182;2022-08-21T00:56:54;16.50;1.00
3308;DHT22;1666;48.898;9.182;2022-08-21T00:59:28;16.50;1.00
3308;DHT22;1666;48.898;9.182;2022-08-21T01:01:58;16.50;1.00
3308;DHT22;1666;48.898;9.182;2022-08-21T01:04:28;16.40;1.00
3308;DHT22;1666;48.898;9.182;2022-08-21T01:06:58;16.40;1.00
3308;DHT22;1666;48.898;9.182;2022-08-21T01:09:28;16.40;1.00
3308;DHT22;1666;48.898;9.182;2022-08-21T01:12:02;16.40;1.00
3308;DHT22;1666;48.898;9.182;2022-08-21T01:14:32;16.40;1.00
3308;DHT22;1666;48.898;9.182;2022-08-21T01:17:04;16.30;1.00
3308;DHT22;1666;48.898;9.182;2022-08-21T01:19:34;16.30;1.00
3308;DHT22;1666;48.898;9.182;2022-08-21T01:22:07;16.30;1.00
3308;DHT22;1666;48.898;9.182;2022-08-21T01:24:37;16.30;1.00
3308;DHT22;1666;48.898;9.182;2022-08-21T01:27:07;16.30;1.00
3308;DHT22;1666;48.898;9.182;2022-08-21T01:29:39;16.30;1.00
3308;DHT22;1666;48.898;9.182;2022-08-21T01:32:13;16.30;1.00
3308;DHT22;1666;48.898;9.182;2022-08-21T01:34:46;16.20;1.00
3308;DHT22;1666;48.898;9.182;2022-08-21T01:37:20;16.20;1.00
3308;DHT22;1666;48.898;9.182;2022-08-21T01:39:50;16.20;1.00
3308;DHT22;1666;48.898;9.182;2022-08-21T01:42:20;16.20;1.00
3308;DHT22;1666;48.898;9.182;2022-08-21T01:44:50;16.10;1.00
3308;DHT22;1666;48.898;9.182;2022-08-21T01:47:22;16.10;1.00
3308;DHT22;1666;48.898;9.182;2022-08-21T01:49:52;16.10;1.00
3308;DHT22;1666;48.898;9.182;2022-08-21T01:52:25;16.10;1.00
3308;DHT22;1666;48.898;9.182;2022-08-21T01:54:56;16.00;1.00
3308;DHT22;1666;48.898;9.182;2022-08-21T01:57:26;15.90;1.00
3308;DHT22;1666;48.898;9.182;2022-08-21T01:59:56;15.80;1.00
3308;DHT22;1666;48.898;9.182;2022-08-21T02:02:26;15.80;1.00
3308;DHT22;1666;48.898;9.182;2022-08-21T02:04:56;15.90;1.00
3308;DHT22;1666;48.898;9.182;2022-08-21T02:07:35;15.80;1.00
3308;DHT22;1666;48.898;9.182;2022-08-21T02:10:08;15.80;1.00
3308;DHT22;1666;48.898;9.182;2022-08-21T02:12:38;15.80;1.00
3308;DHT22;1666;48.898;9.182;2022-08-21T02:15:09;15.80;1.00
3308;DHT22;1666;48.898;9.182;2022-08-21T02:17:41;15.80;1.00
3308;DHT22;1666;48.898;9.182;2022-08-21T02:20:14;15.70;1.00
3308;DHT22;1666;48.898;9.182;2022-08-21T02:22:47;15.70;1.00
3308;DHT22;1666;48.898;9.182;2022-08-21T02:25:18;15.60;1.00
3308;DHT22;1666;48.898;9.182;2022-08-21T02:27:49;15.60;1.00
3308;DHT22;1666;48.898;9.182;2022-08-21T02:30:20;15.60;1.00
3308;DHT22;1666;48.898;9.182;2022-08-21T02:32:50;15.60;1.00
3308;DHT22;1666;48.898;9.182;2022-08-21T02:35:21;15.60;1.00
3308;DHT22;1666;48.898;9.182;2022-08-21T02:37:55;15.60;1.00
3308;DHT22;1666;48.898;9.182;2022-08-21T02:40:27;15.60;1.00
3308;DHT22;1666;48.898;9.182;2022-08-21T02:42:58;15.60;1.00
3308;DHT22;1666;48.898;9.182;2022-08-21T02:45:29;15.70;1.00
3308;DHT22;1666;48.898;9.182;2022-08-21T02:48:01;15.70;1.00
3308;DHT22;1666;48.898;9.182;2022-08-21T02:50:34;15.70;1.00
3308;DHT22;1666;48.898;9.182;2022-08-21T02:53:08;15.70;1.00
3308;DHT22;1666;48.898;9.182;2022-08-21T02:55:40;15.70;1.00
3308;DHT22;1666;48.898;9.182;2022-08-21T02:58:11;15.70;1.00
3308;DHT22;1666;48.898;9.182;2022-08-21T03:00:43;15.70;1.00
3308;DHT22;1666;48.898;9.182;2022-08-21T03:03:13;15.60;1.00
3308;DHT22;1666;48.898;9.182;2022-08-21T03:05:44;15.60;1.00
3308;DHT22;1666;48.898;9.182;2022-08-21T03:08:17;15.50;1.00
3308;DHT22;1666;48.898;9.182;2022-08-21T03:10:52;15.40;1.40
3308;DHT22;1666;48.898;9.182;2022-08-21T03:13:22;15.30;2.20
3308;DHT22;1666;48.898;9.182;2022-08-21T03:15:52;15.30;1.20
3308;DHT22;1666;48.898;9.182;2022-08-21T03:18:24;15.40;1.20
3308;DHT22;1666;48.898;9.182;2022-08-21T03:20:54;15.50;1.60
3308;DHT22;1666;48.898;9.182;2022-08-21T03:23:26;15.40;2.30
3308;DHT22;1666;48.898;9.182;2022-08-21T03:25:58;15.40;3.50
3308;DHT22;1666;48.898;9.182;2022-08-21T03:28:28;15.40;4.00
3308;DHT22;1666;48.898;9.182;2022-08-21T03:30:58;15.40;4.70
3308;DHT22;1666;48.898;9.182;2022-08-21T03:33:28;15.20;5.90
3308;DHT22;1666;48.898;9.182;2022-08-21T03:36:02;15.20;5.80
3308;DHT22;1666;48.898;9.182;2022-08-21T03:38:35;15.30;7.50
3308;DHT22;1666;48.898;9.182;2022-08-21T03:41:06;15.20;8.00
3308;DHT22;1666;48.898;9.182;2022-08-21T03:43:36;15.20;8.80
3308;DHT22;1666;48.898;9.182;2022-08-21T03:46:06;15.20;9.70
3308;DHT22;1666;48.898;9.182;2022-08-21T03:48:37;15.20;10.00
3308;DHT22;1666;48.898;9.182;2022-08-21T03:51:07;15.20;10.20
3308;DHT22;1666;48.898;9.182;2022-08-21T03:53:39;15.20;11.30
3308;DHT22;1666;48.898;9.182;2022-08-21T03:56:09;15.10;11.80
3308;DHT22;1666;48.898;9.182;2022-08-21T03:58:39;15.10;13.20
3308;DHT22;1666;48.898;9.182;2022-08-21T04:01:09;15.10;14.40
3308;DHT22;1666;48.898;9.182;2022-08-21T04:03:39;15.10;15.00
3308;DHT22;1666;48.898;9.182;2022-08-21T04:06:09;15.20;15.40
3308;DHT22;1666;48.898;9.182;2022-08-21T04:08:42;15.10;16.00
3308;DHT22;1666;48.898;9.182;2022-08-21T04:11:12;15.10;16.90
3308;DHT22;1666;48.898;9.182;2022-08-21T04:13:42;15.10;18.50
3308;DHT22;1666;48.898;9.182;2022-08-21T04:16:12;15.10;18.50
3308;DHT22;1666;48.898;9.182;2022-08-21T04:18:42;15.10;18.50
3308;DHT22;1666;48.898;9.182;2022-08-21T04:21:12;15.00;18.70
3308;DHT22;1666;48.898;9.182;2022-08-21T04:23:45;15.00;19.80
3308;DHT22;1666;48.898;9.182;2022-08-21T04:26:15;15.00;19.90
3308;DHT22;1666;48.898;9.182;2022-08-21T04:28:45;15.00;20.40
3308;DHT22;1666;48.898;9.182;2022-08-21T04:31:15;14.90;20.80
3308;DHT22;1666;48.898;9.182;2022-08-21T04:33:45;14.90;22.20
3308;DHT22;1666;48.898;9.182;2022-08-21T04:36:15;15.00;21.50
3308;DHT22;1666;48.898;9.182;2022-08-21T04:38:52;14.90;21.80
3308;DHT22;1666;48.898;9.182;2022-08-21T04:41:23;14.90;21.90
3308;DHT22;1666;48.898;9.182;2022-08-21T04:43:54;15.00;22.00
3308;DHT22;1666;48.898;9.182;2022-08-21T04:46:25;15.50;18.80
3308;DHT22;1666;48.898;9.182;2022-08-21T04:48:55;16.20;13.80
3308;DHT22;1666;48.898;9.182;2022-08-21T04:51:27;16.50;9.20
3308;DHT22;1666;48.898;9.182;2022-08-21T04:54:16;16.90;6.30
3308;DHT22;1666;48.898;9.182;2022-08-21T04:56:51;17.40;1.60
3308;DHT22;1666;48.898;9.182;2022-08-21T04:59:25;17.80;1.00
3308;DHT22;1666;48.898;9.182;2022-08-21T05:01:56;18.00;1.00
3308;DHT22;1666;48.898;9.182;2022-08-21T05:04:29;18.40;1.00
3308;DHT22;1666;48.898;9.182;2022-08-21T05:07:04;18.50;1.00
3308;DHT22;1666;48.898;9.182;2022-08-21T05:09:38;18.90;1.00
3308;DHT22;1666;48.898;9.182;2022-08-21T05:12:08;19.30;1.00
3308;DHT22;1666;48.898;9.182;2022-08-21T05:14:38;19.50;1.00
3308;DHT22;1666;48.898;9.182;2022-08-21T05:17:09;20.30;1.00
3308;DHT22;1666;48.898;9.182;2022-08-21T05:19:39;20.40;1.00
3308;DHT22;1666;48.898;9.182;2022-08-21T05:22:09;20.20;1.00
3308;DHT22;1666;48.898;9.182;2022-08-21T05:24:42;21.10;1.00
3308;DHT22;1666;48.898;9.182;2022-08-21T05:27:11;21.20;1.00
3308;DHT22;1666;48.898;9.182;2022-08-21T05:29:43;21.40;1.00
3308;DHT22;1666;48.898;9.182;2022-08-21T05:32:13;21.80;1.00
3308;DHT22;1666;48.898;9.182;2022-08-21T05:34:44;22.10;1.00
3308;DHT22;1666;48.898;9.182;2022-08-21T05:37:14;21.60;1.00
3308;DHT22;1666;48.898;9.182;2022-08-21T05:39:47;21.90;1.00
3308;DHT22;1666;48.898;9.182;2022-08-21T05:42:36;21.50;1.00
3308;DHT22;1666;48.898;9.182;2022-08-21T05:45:07;20.40;1.00
3308;DHT22;1666;48.898;9.182;2022-08-21T05:47:37;18.90;1.00
3308;DHT22;1666;48.898;9.182;2022-08-21T05:50:07;18.30;1.00
3308;DHT22;1666;48.898;9.182;2022-08-21T05:52:37;18.20;1.00
3308;DHT22;1666;48.898;9.182;2022-08-21T05:55:10;18.00;1.00
3308;DHT22;1666;48.898;9.182;2022-08-21T05:57:40;17.90;1.00
3308;DHT22;1666;48.898;9.182;2022-08-21T06:00:11;18.00;1.00
3308;DHT22;1666;48.898;9.182;2022-08-21T06:02:41;17.70;1.00
3308;DHT22;1666;48.898;9.182;2022-08-21T06:05:11;17.70;1.00
3308;DHT22;1666;48.898;9.182;2022-08-21T06:07:50;17.70;1.00
3308;DHT22;1666;48.898;9.182;2022-08-21T06:10:23;18.00;1.00
3308;DHT22;1666;48.898;9.182;2022-08-21T06:12:53;18.20;1.00
3308;DHT22;1666;48.898;9.182;2022-08-21T06:15:23;18.10;1.00
3308;DHT22;1666;48.898;9.182;2022-08-21T06:17:54;18.30;1.00
3308;DHT22;1666;48.898;9.182;2022-08-21T06:20:24;18.30;1.00
3308;DHT22;1666;48.898;9.182;2022-08-21T06:22:55;18.30;1.00
3308;DHT22;1666;48.898;9.182;2022-08-21T06:25:28;18.20;1.00
3308;DHT22;1666;48.898;9.182;2022-08-21T06:28:01;18.30;1.00
3308;DHT22;1666;48.898;9.182;2022-08-21T06:30:31;18.50;1.00
3308;DHT22;1666;48.898;9.182;2022-08-21T06:33:02;18.60;1.00
3308;DHT22;1666;48.898;9.182;2022-08-21T06:35:33;18.80;1.00
3308;DHT22;1666;48.898;9.182;2022-08-21T06:38:08;18.80;1.00
3308;DHT22;1666;48.898;9.182;2022-08-21T06:40:41;19.00;1.00
3308;DHT22;1666;48.898;9.182;2022-08-21T06:43:16;19.00;1.00
3308;DHT22;1666;48.898;9.182;2022-08-21T06:45:46;19.00;1.00
3308;DHT22;1666;48.898;9.182;2022-08-21T06:48:16;19.10;1.00
3308;DHT22;1666;48.898;9.182;2022-08-21T06:50:46;19.30;1.00
3308;DHT22;1666;48.898;9.182;2022-08-21T06:53:18;19.40;1.00
3308;DHT22;1666;48.898;9.182;2022-08-21T06:55:51;19.50;1.00
3308;DHT22;1666;48.898;9.182;2022-08-21T06:58:21;19.50;1.00
3308;DHT22;1666;48.898;9.182;2022-08-21T07:00:51;19.60;1.00
3308;DHT22;1666;48.898;9.182;2022-08-21T07:03:29;19.80;1.00
3308;DHT22;1666;48.898;9.182;2022-08-21T07:05:59;20.00;1.00
3308;DHT22;1666;48.898;9.182;2022-08-21T07:08:29;19.90;1.00
3308;DHT22;1666;48.898;9.182;2022-08-21T07:11:04;19.90;1.00
3308;DHT22;1666;48.898;9.182;2022-08-21T07:13:36;20.20;1.00
3308;DHT22;1666;48.898;9.182;2022-08-21T07:16:06;20.40;1.00
3308;DHT22;1666;48.898;9.182;2022-08-21T07:18:36;20.60;1.00
3308;DHT22;1666;48.898;9.182;2022-08-21T07:21:07;20.80;1.00
3308;DHT22;1666;48.898;9.182;2022-08-21T07:23:40;20.60;1.00
3308;DHT22;1666;48.898;9.182;2022-08-21T07:26:14;20.40;1.00
3308;DHT22;1666;48.898;9.182;2022-08-21T07:28:44;20.30;1.00
3308;DHT22;1666;48.898;9.182;2022-08-21T07:31:16;20.40;1.00
3308;DHT22;1666;48.898;9.182;2022-08-21T07:33:46;20.30;1.00
3308;DHT22;1666;48.898;9.182;2022-08-21T07:36:16;20.30;1.00
3308;DHT22;1666;48.898;9.182;2022-08-21T07:38:47;20.50;1.00
3308;DHT22;1666;48.898;9.182;2022-08-21T07:41:26;20.50;1.00
3308;DHT22;1666;48.898;9.182;2022-08-21T07:43:57;20.70;1.00
3308;DHT22;1666;48.898;9.182;2022-08-21T07:46:27;20.90;1.00
3308;DHT22;1666;48.898;9.182;2022-08-21T07:48:57;20.80;1.00
3308;DHT22;1666;48.898;9.182;2022-08-21T07:51:28;20.80;1.00
3308;DHT22;1666;48.898;9.182;2022-08-21T07:53:58;21.00;1.00
3308;DHT22;1666;48.898;9.182;2022-08-21T07:56:31;20.80;1.00
3308;DHT22;1666;48.898;9.182;2022-08-21T07:59:01;21.00;1.00
3308;DHT22;1666;48.898;9.182;2022-08-21T08:01:31;21.20;1.00
3308;DHT22;1666;48.898;9.182;2022-08-21T08:04:01;21.50;1.00
3308;DHT22;1666;48.898;9.182;2022-08-21T08:06:31;21.50;1.00
3308;DHT22;1666;48.898;9.182;2022-08-21T08:09:01;21.30;1.00
3308;DHT22;1666;48.898;9.182;2022-08-21T08:11:34;21.60;1.00
3308;DHT22;1666;48.898;9.182;2022-08-21T08:14:04;21.70;1.00
3308;DHT22;1666;48.898;9.182;2022-08-21T08:16:34;21.60;1.00
3308;DHT22;1666;48.898;9.182;2022-08-21T08:19:04;21.10;1.00
3308;DHT22;1666;48.898;9.182;2022-08-21T08:21:34;21.30;1.00
3308;DHT22;1666;48.898;9.182;2022-08-21T08:24:05;21.50;1.00
3308;DHT22;1666;48.898;9.182;2022-08-21T08:26:48;21.60;1.00
3308;DHT22;1666;48.898;9.182;2022-08-21T08:29:20;21.70;1.00
3308;DHT22;1666;48.898;9.182;2022-08-21T08:31:50;21.90;1.00
3308;DHT22;1666;48.898;9.182;2022-08-21T08:34:21;21.90;1.00
3308;DHT22;1666;48.898;9.182;2022-08-21T08:36:52;22.00;1.00
3308;DHT22;1666;48.898;9.182;2022-08-21T08:39:25;22.00;1.00
3308;DHT22;1666;48.898;9.182;2022-08-21T08:42:04;22.30;1.00
3308;DHT22;1666;48.898;9.182;2022-08-21T08:44:59;22.30;1.00
3308;DHT22;1666;48.898;9.182;2022-08-21T08:47:31;22.30;1.00
3308;DHT22;1666;48.898;9.182;2022-08-21T08:50:04;22.30;1.00
3308;DHT22;1666;48.898;9.182;2022-08-21T08:52:40;22.60;1.00
3308;DHT22;1666;48.898;9.182;2022-08-21T08:55:13;22.50;1.00
3308;DHT22;1666;48.898;9.182;2022-08-21T08:57:48;22.60;1.00
3308;DHT22;1666;48.898;9.182;2022-08-21T09:00:20;22.60;1.00
3308;DHT22;1666;48.898;9.182;2022-08-21T09:02:54;22.90;1.00
3308;DHT22;1666;48.898;9.182;2022-08-21T09:05:28;22.60;1.00
3308;DHT22;1666;48.898;9.182;2022-08-21T09:08:14;23.20;1.00
3308;DHT22;1666;48.898;9.182;2022-08-21T09:10:52;23.10;1.00
3308;DHT22;1666;48.898;9.182;2022-08-21T09:13:36;23.00;1.00
3308;DHT22;1666;48.898;9.182;2022-08-21T09:16:15;23.20;1.00
3308;DHT22;1666;48.898;9.182;2022-08-21T09:18:56;23.20;1.00
3308;DHT22;1666;48.898;9.182;2022-08-21T09:21:38;23.30;1.00
3308;DHT22;1666;48.898;9.182;2022-08-21T09:24:24;23.10;1.00
3308;DHT22;1666;48.898;9.182;2022-08-21T09:27:02;23.10;1.00
3308;DHT22;1666;48.898;9.182;2022-08-21T09:29:38;23.70;1.00
3308;DHT22;1666;48.898;9.182;2022-08-21T09:32:13;24.20;1.00
3308;DHT22;1666;48.898;9.182;2022-08-21T09:34:56;23.90;1.00
3308;DHT22;1666;48.898;9.182;2022-08-21T09:37:28;23.70;1.00
3308;DHT22;1666;48.898;9.182;2022-08-21T09:39:59;23.90;1.00
3308;DHT22;1666;48.898;9.182;2022-08-21T09:42:31;24.00;1.00
3308;DHT22;1666;48.898;9.182;2022-08-21T09:45:11;23.60;1.00
3308;DHT22;1666;48.898;9.182;2022-08-21T09:47:41;23.60;1.00
3308;DHT22;1666;48.898;9.182;2022-08-21T09:50:15;23.90;1.00
3308;DHT22;1666;48.898;9.182;2022-08-21T09:52:49;24.00;1.00
3308;DHT22;1666;48.898;9.182;2022-08-21T09:55:26;23.90;1.00
3308;DHT22;1666;48.898;9.182;2022-08-21T09:58:11;23.80;1.00
3308;DHT22;1666;48.898;9.182;2022-08-21T10:00:44;24.00;1.00
3308;DHT22;1666;48.898;9.182;2022-08-21T10:03:17;24.30;1.00
3308;DHT22;1666;48.898;9.182;2022-08-21T10:05:57;24.30;1.00
3308;DHT22;1666;48.898;9.182;2022-08-21T10:08:29;24.40;1.00
3308;DHT22;1666;48.898;9.182;2022-08-21T10:11:04;24.40;1.00
3308;DHT22;1666;48.898;9.182;2022-08-21T10:13:47;24.50;1.00
3308;DHT22;1666;48.898;9.182;2022-08-21T10:16:31;24.80;1.00
3308;DHT22;1666;48.898;9.182;2022-08-21T10:19:16;24.80;1.00
3308;DHT22;1666;48.898;9.182;2022-08-21T10:21:59;24.80;1.00
3308;DHT22;1666;48.898;9.182;2022-08-21T10:24:33;24.30;1.00
3308;DHT22;1666;48.898;9.182;2022-08-21T10:27:14;24.30;1.00
3308;DHT22;1666;48.898;9.182;2022-08-21T10:29:53;24.80;1.00
3308;DHT22;1666;48.898;9.182;2022-08-21T10:32:38;25.00;1.00
3308;DHT22;1666;48.898;9.182;2022-08-21T10:35:14;25.00;1.00
3308;DHT22;1666;48.898;9.182;2022-08-21T10:38:01;25.20;1.00
3308;DHT22;1666;48.898;9.182;2022-08-21T10:40:40;25.40;1.00
3308;DHT22;1666;48.898;9.182;2022-08-21T10:43:23;25.50;1.00
3308;DHT22;1666;48.898;9.182;2022-08-21T10:46:02;25.60;1.00
3308;DHT22;1666;48.898;9.182;2022-08-21T10:48:38;25.20;1.00
3308;DHT22;1666;48.898;9.182;2022-08-21T10:51:14;25.50;1.00
3308;DHT22;1666;48.898;9.182;2022-08-21T10:54:00;25.30;1.00
3308;DHT22;1666;48.898;9.182;2022-08-21T10:56:36;25.30;1.00
3308;DHT22;1666;48.898;9.182;2022-08-21T10:59:23;25.00;1.00
3308;DHT22;1666;48.898;9.182;2022-08-21T11:02:00;24.90;1.00
3308;DHT22;1666;48.898;9.182;2022-08-21T11:04:40;25.30;1.00
3308;DHT22;1666;48.898;9.182;2022-08-21T11:07:19;25.00;1.00
3308;DHT22;1666;48.898;9.182;2022-08-21T11:09:51;25.00;1.00
3308;DHT22;1666;48.898;9.182;2022-08-21T11:12:28;25.30;1.00
3308;DHT22;1666;48.898;9.182;2022-08-21T11:15:03;25.10;1.00
3308;DHT22;1666;48.898;9.182;2022-08-21T11:18:01;25.20;1.00
3308;DHT22;1666;48.898;9.182;2022-08-21T11:20:40;25.20;1.00
3308;DHT22;1666;48.898;9.182;2022-08-21T11:23:16;25.40;1.00
3308;DHT22;1666;48.898;9.182;2022-08-21T11:25:52;25.50;1.00
3308;DHT22;1666;48.898;9.182;2022-08-21T11:28:26;25.00;1.00
3308;DHT22;1666;48.898;9.182;2022-08-21T11:31:05;25.30;1.00
3308;DHT22;1666;48.898;9.182;2022-08-21T11:33:57;25.80;1.00
3308;DHT22;1666;48.898;9.182;2022-08-21T11:36:38;26.10;1.00
3308;DHT22;1666;48.898;9.182;2022-08-21T11:39:19;26.40;1.00
3308;DHT22;1666;48.898;9.182;2022-08-21T11:41:56;26.50;1.00
3308;DHT22;1666;48.898;9.182;2022-08-21T11:44:45;26.20;1.00
3308;DHT22;1666;48.898;9.182;2022-08-21T11:47:24;26.40;1.00
3308;DHT22;1666;48.898;9.182;2022-08-21T11:50:13;26.30;1.00
3308;DHT22;1666;48.898;9.182;2022-08-21T11:53:10;26.10;1.00
3308;DHT22;1666;48.898;9.182;2022-08-21T11:55:44;26.00;1.00
3308;DHT22;1666;48.898;9.182;2022-08-21T11:58:20;26.10;1.00
3308;DHT22;1666;48.898;9.182;2022-08-21T12:00:54;26.00;1.00
3308;DHT22;1666;48.898;9.182;2022-08-21T12:03:25;25.70;1.00
3308;DHT22;1666;48.898;9.182;2022-08-21T12:05:58;26.10;1.00
3308;DHT22;1666;48.898;9.182;2022-08-21T12:08:34;26.10;1.00
3308;DHT22;1666;48.898;9.182;2022-08-21T12:11:07;26.00;1.00
3308;DHT22;1666;48.898;9.182;2022-08-21T12:13:40;26.30;1.00
3308;DHT22;1666;48.898;9.182;2022-08-21T12:16:30;26.30;1.00
3308;DHT22;1666;48.898;9.182;2022-08-21T12:19:05;26.00;1.00
3308;DHT22;1666;48.898;9.182;2022-08-21T12:21:49;26.10;1.00
3308;DHT22;1666;48.898;9.182;2022-08-21T12:24:33;26.30;1.00
3308;DHT22;1666;48.898;9.182;2022-08-21T12:27:19;26.30;1.00
3308;DHT22;1666;48.898;9.182;2022-08-21T12:29:54;26.00;1.00
3308;DHT22;1666;48.898;9.182;2022-08-21T12:32:28;25.80;1.00
3308;DHT22;1666;48.898;9.182;2022-08-21T12:35:06;26.30;1.00
3308;DHT22;1666;48.898;9.182;2022-08-21T12:37:57;26.10;1.00
3308;DHT22;1666;48.898;9.182;2022-08-21T12:40:39;26.40;1.00
3308;DHT22;1666;48.898;9.182;2022-08-21T12:43:15;26.50;1.00
3308;DHT22;1666;48.898;9.182;2022-08-21T12:45:49;26.60;1.00
3308;DHT22;1666;48.898;9.182;2022-08-21T12:48:25;26.70;1.00
3308;DHT22;1666;48.898;9.182;2022-08-21T12:50:58;26.70;1.00
3308;DHT22;1666;48.898;9.182;2022-08-21T12:53:40;26.70;1.00
3308;DHT22;1666;48.898;9.182;2022-08-21T12:56:17;26.70;1.00
3308;DHT22;1666;48.898;9.182;2022-08-21T12:58:50;26.40;1.00
3308;DHT22;1666;48.898;9.182;2022-08-21T13:01:24;26.60;1.00
3308;DHT22;1666;48.898;9.182;2022-08-21T13:03:58;26.50;1.00
3308;DHT22;1666;48.898;9.182;2022-08-21T13:06:37;26.70;1.00
3308;DHT22;1666;48.898;9.182;2022-08-21T13:09:11;26.70;1.00
3308;DHT22;1666;48.898;9.182;2022-08-21T13:11:47;26.90;1.00
3308;DHT22;1666;48.898;9.182;2022-08-21T13:14:24;27.00;1.00
3308;DHT22;1666;48.898;9.182;2022-08-21T13:16:55;26.90;1.00
3308;DHT22;1666;48.898;9.182;2022-08-21T13:19:25;26.90;1.00
3308;DHT22;1666;48.898;9.182;2022-08-21T13:21:56;27.10;1.00
3308;DHT22;1666;48.898;9.182;2022-08-21T13:24:29;26.70;1.00
3308;DHT22;1666;48.898;9.182;2022-08-21T13:27:26;26.90;1.00
3308;DHT22;1666;48.898;9.182;2022-08-21T13:30:07;26.80;1.00
3308;DHT22;1666;48.898;9.182;2022-08-21T13:32:40;27.20;1.00
3308;DHT22;1666;48.898;9.182;2022-08-21T13:35:15;27.70;1.00
3308;DHT22;1666;48.898;9.182;2022-08-21T13:37:47;27.80;1.00
3308;DHT22;1666;48.898;9.182;2022-08-21T13:40:20;27.80;1.00
3308;DHT22;1666;48.898;9.182;2022-08-21T13:42:56;27.70;1.00
3308;DHT22;1666;48.898;9.182;2022-08-21T13:45:31;27.50;1.00
3308;DHT22;1666;48.898;9.182;2022-08-21T13:48:02;27.50;1.00
3308;DHT22;1666;48.898;9.182;2022-08-21T13:50:34;27.40;1.00
3308;DHT22;1666;48.898;9.182;2022-08-21T13:53:06;27.40;1.00
3308;DHT22;1666;48.898;9.182;2022-08-21T13:55:40;27.70;1.00
3308;DHT22;1666;48.898;9.182;2022-08-21T13:58:12;27.20;1.00
3308;DHT22;1666;48.898;9.182;2022-08-21T14:00:54;27.10;1.00
3308;DHT22;1666;48.898;9.182;2022-08-21T14:03:32;27.10;1.00
3308;DHT22;1666;48.898;9.182;2022-08-21T14:06:05;27.20;1.00
3308;DHT22;1666;48.898;9.182;2022-08-21T14:08:41;27.50;1.00
3308;DHT22;1666;48.898;9.182;2022-08-21T14:11:12;27.50;1.00
3308;DHT22;1666;48.898;9.182;2022-08-21T14:13:48;27.30;1.00
3308;DHT22;1666;48.898;9.182;2022-08-21T14:16:21;27.10;1.00
3308;DHT22;1666;48.898;9.182;2022-08-21T14:18:54;27.00;1.00
3308;DHT22;1666;48.898;9.182;2022-08-21T14:21:38;26.90;1.00
3308;DHT22;1666;48.898;9.182;2022-08-21T14:24:12;26.60;1.00
3308;DHT22;1666;48.898;9.182;2022-08-21T14:26:49;26.60;1.00
3308;DHT22;1666;48.898;9.182;2022-08-21T14:29:26;26.60;1.00
3308;DHT22;1666;48.898;9.182;2022-08-21T14:32:09;26.90;1.00
3308;DHT22;1666;48.898;9.182;2022-08-21T14:34:51;27.30;1.00
3308;DHT22;1666;48.898;9.182;2022-08-21T14:37:25;27.60;1.00
3308;DHT22;1666;48.898;9.182;2022-08-21T14:39:55;27.50;1.00
3308;DHT22;1666;48.898;9.182;2022-08-21T14:42:25;27.30;1.00
3308;DHT22;1666;48.898;9.182;2022-08-21T14:45:01;27.20;1.00
3308;DHT22;1666;48.898;9.182;2022-08-21T14:47:31;27.30;1.00
3308;DHT22;1666;48.898;9.182;2022-08-21T14:50:01;27.30;1.00
3308;DHT22;1666;48.898;9.182;2022-08-21T14:52:31;27.10;1.00
3308;DHT22;1666;48.898;9.182;2022-08-21T14:55:01;27.40;1.00
3308;DHT22;1666;48.898;9.182;2022-08-21T14:57:32;27.70;1.00
3308;DHT22;1666;48.898;9.182;2022-08-21T15:00:07;27.70;1.00
3308;DHT22;1666;48.898;9.182;2022-08-21T15:02:37;27.30;1.00
3308;DHT22;1666;48.898;9.182;2022-08-21T15:05:08;27.40;1.00
3308;DHT22;1666;48.898;9.182;2022-08-21T15:07:38;27.50;1.00
3308;DHT22;1666;48.898;9.182;2022-08-21T15:10:09;27.20;1.00
3308;DHT22;1666;48.898;9.182;2022-08-21T15:12:39;27.30;1.00
3308;DHT22;1666;48.898;9.182;2022-08-21T15:15:13;27.30;1.00
3308;DHT22;1666;48.898;9.182;2022-08-21T15:17:44;27.00;1.00
3308;DHT22;1666;48.898;9.182;2022-08-21T15:20:14;27.00;1.00
3308;DHT22;1666;48.898;9.182;2022-08-21T15:22:44;27.00;1.00
3308;DHT22;1666;48.898;9.182;2022-08-21T15:25:16;27.10;1.00
3308;DHT22;1666;48.898;9.182;2022-08-21T15:27:45;27.30;1.00
3308;DHT22;1666;48.898;9.182;2022-08-21T15:30:18;27.10;1.00
3308;DHT22;1666;48.898;9.182;2022-08-21T15:32:48;27.00;1.00
3308;DHT22;1666;48.898;9.182;2022-08-21T15:35:21;26.80;1.00
3308;DHT22;1666;48.898;9.182;2022-08-21T15:37:51;26.50;1.00
3308;DHT22;1666;48.898;9.182;2022-08-21T15:40:21;26.40;1.00
3308;DHT22;1666;48.898;9.182;2022-08-21T15:42:55;26.30;1.00
3308;DHT22;1666;48.898;9.182;2022-08-21T15:45:29;26.60;1.00
3308;DHT22;1666;48.898;9.182;2022-08-21T15:47:59;26.50;1.00
3308;DHT22;1666;48.898;9.182;2022-08-21T15:50:29;26.60;1.00
3308;DHT22;1666;48.898;9.182;2022-08-21T15:52:59;26.50;1.00
3308;DHT22;1666;48.898;9.182;2022-08-21T15:55:32;26.60;1.00
3308;DHT22;1666;48.898;9.182;2022-08-21T15:58:03;26.80;1.00
3308;DHT22;1666;48.898;9.182;2022-08-21T16:00:37;26.90;1.00
3308;DHT22;1666;48.898;9.182;2022-08-21T16:03:08;26.60;1.00
3308;DHT22;1666;48.898;9.182;2022-08-21T16:05:42;26.80;1.00
3308;DHT22;1666;48.898;9.182;2022-08-21T16:08:15;26.80;1.00
3308;DHT22;1666;48.898;9.182;2022-08-21T16:10:45;26.70;1.00
3308;DHT22;1666;48.898;9.182;2022-08-21T16:13:19;26.60;1.00
3308;DHT22;1666;48.898;9.182;2022-08-21T16:15:52;26.60;1.00
3308;DHT22;1666;48.898;9.182;2022-08-21T16:18:23;26.60;1.00
3308;DHT22;1666;48.898;9.182;2022-08-21T16:20:53;26.50;1.00
3308;DHT22;1666;48.898;9.182;2022-08-21T16:23:23;26.50;1.00
3308;DHT22;1666;48.898;9.182;2022-08-21T16:25:53;26.40;1.00
3308;DHT22;1666;48.898;9.182;2022-08-21T16:28:23;26.40;1.00
3308;DHT22;1666;48.898;9.182;2022-08-21T16:30:56;26.30;1.00
3308;DHT22;1666;48.898;9.182;2022-08-21T16:33:31;26.30;1.00
3308;DHT22;1666;48.898;9.182;2022-08-21T16:36:04;26.40;1.00
3308;DHT22;1666;48.898;9.182;2022-08-21T16:38:35;26.40;1.00
3308;DHT22;1666;48.898;9.182;2022-08-21T16:41:08;26.40;1.00
3308;DHT22;1666;48.898;9.182;2022-08-21T16:43:39;26.40;1.00
3308;DHT22;1666;48.898;9.182;2022-08-21T16:46:14;26.50;1.00
3308;DHT22;1666;48.898;9.182;2022-08-21T16:48:44;26.50;1.00
3308;DHT22;1666;48.898;9.182;2022-08-21T16:51:16;26.50;1.00
3308;DHT22;1666;48.898;9.182;2022-08-21T16:53:46;26.40;1.00
3308;DHT22;1666;48.898;9.182;2022-08-21T16:56:16;26.20;1.00
3308;DHT22;1666;48.898;9.182;2022-08-21T16:58:48;26.20;1.00